createdAt,value
2022-08-16T00:02:28.755Z,100.00
2022-08-16T00:05:02.130Z,99.95
2022-08-16T00:07:34.705Z,98.75
2022-08-16T00:10:10.511Z,95.33
2022-08-16T00:12:54.639Z,94.39
2022-08-16T00:15:51.955Z,94.02
2022-08-16T00:18:29.734Z,95.60
2022-08-16T00:21:03.822Z,97.72
2022-08-16T00:23:40.348Z,100.00
2022-08-16T00:26:35.391Z,100.00
2022-08-16T00:29:15.461Z,100.00
2022-08-16T00:31:59.712Z,99.80
2022-08-16T00:34:44.943Z,99.67
2022-08-16T00:37:58.378Z,100.00
2022-08-16T00:40:34.640Z,100.00
2022-08-16T00:43:19.456Z,100.00
2022-08-16T00:46:33.313Z,100.00
2022-08-16T00:49:17.352Z,98.75
2022-08-16T00:51:54.944Z,95.59
2022-08-16T00:54:32.967Z,96.09
2022-08-16T00:57:07.209Z,98.23
2022-08-16T00:59:54.586Z,91.85
2022-08-16T01:02:32.703Z,91.54
2022-08-16T01:05:10.355Z,91.77
2022-08-16T01:07:52.129Z,94.46
2022-08-16T01:10:32.312Z,94.25
2022-08-16T01:13:15.724Z,100.00
2022-08-16T01:16:12.450Z,98.09
2022-08-16T01:19:26.757Z,99.67
2022-08-16T01:22:58.841Z,93.28
2022-08-16T01:25:13.127Z,94.60
2022-08-16T01:27:51.086Z,92.43
2022-08-16T01:30:29.521Z,95.12
2022-08-16T01:33:14.729Z,93.89
2022-08-16T01:36:01.242Z,93.94
2022-08-16T01:38:37.457Z,96.53
2022-08-16T01:41:19.200Z,95.56
2022-08-16T01:43:54.609Z,94.69
2022-08-16T01:46:39.117Z,94.37
2022-08-16T01:49:14.690Z,93.79
2022-08-16T01:52:00.655Z,93.15
2022-08-16T01:54:34.262Z,93.72
2022-08-16T01:57:11.374Z,95.27
2022-08-16T01:59:43.962Z,94.71
2022-08-16T02:02:27.428Z,94.61
2022-08-16T02:05:01.340Z,93.08
2022-08-16T02:07:34.236Z,94.91
2022-08-16T02:10:08.402Z,94.97
2022-08-16T02:12:51.470Z,96.61
2022-08-16T02:15:35.276Z,96.04
2022-08-16T02:18:12.720Z,97.09
2022-08-16T02:20:50.101Z,97.45
2022-08-16T02:23:25.862Z,97.17
2022-08-16T02:26:02.412Z,96.57
2022-08-16T02:28:35.419Z,95.61
2022-08-16T02:31:11.411Z,95.66
2022-08-16T02:33:50.070Z,94.53
2022-08-16T02:36:47.673Z,95.26
2022-08-16T02:39:16.082Z,94.94
2022-08-16T02:41:52.983Z,94.75
2022-08-16T02:44:27.035Z,95.04
2022-08-16T02:47:00.997Z,96.50
2022-08-16T02:50:30.577Z,95.48
2022-08-16T02:52:29.330Z,96.11
2022-08-16T02:55:02.430Z,95.97
2022-08-16T02:57:37.094Z,95.60
2022-08-16T03:00:31.817Z,96.29
2022-08-16T03:03:10.547Z,96.13
2022-08-16T03:05:43.235Z,95.15
2022-08-16T03:08:50.676Z,94.79
2022-08-16T03:11:21.489Z,95.13
2022-08-16T03:13:56.491Z,96.03
2022-08-16T03:16:37.939Z,95.11
2022-08-16T03:19:12.298Z,95.61
2022-08-16T03:21:44.753Z,95.66
2022-08-16T03:24:28.777Z,95.42
2022-08-16T03:27:03.297Z,95.44
2022-08-16T03:29:35.832Z,94.99
2022-08-16T03:32:08.482Z,96.57
2022-08-16T03:34:40.945Z,96.24
2022-08-16T03:37:13.901Z,95.86
2022-08-16T03:39:46.996Z,96.51
2022-08-16T03:42:20.483Z,96.53
2022-08-16T03:45:03.728Z,96.44
2022-08-16T03:47:36.731Z,96.65
2022-08-16T03:50:26.200Z,96.63
2022-08-16T03:53:03.143Z,96.48
2022-08-16T03:55:45.203Z,97.02
2022-08-16T03:58:18.494Z,97.38
2022-08-16T04:00:59.058Z,97.25
2022-08-16T04:03:32.825Z,96.30
2022-08-16T04:06:06.160Z,96.94
2022-08-16T04:08:39.643Z,98.01
2022-08-16T04:11:12.354Z,98.63
2022-08-16T04:14:00.301Z,96.82
2022-08-16T04:16:41.545Z,99.34
2022-08-16T04:19:13.991Z,97.96
2022-08-16T04:21:47.763Z,96.71
2022-08-16T04:24:20.458Z,98.67
2022-08-16T04:26:52.900Z,98.60
2022-08-16T04:29:27.788Z,99.94
2022-08-16T04:32:16.675Z,100.00
2022-08-16T04:34:52.349Z,99.42
2022-08-16T04:37:25.509Z,98.51
2022-08-16T04:39:58.200Z,98.91
2022-08-16T04:42:35.774Z,98.91
2022-08-16T04:45:13.612Z,99.65
2022-08-16T04:47:56.204Z,99.78
2022-08-16T04:50:30.531Z,99.58
2022-08-16T04:53:03.375Z,98.90
2022-08-16T04:55:38.012Z,99.42
2022-08-16T04:58:44.251Z,98.23
2022-08-16T05:01:07.983Z,98.48
2022-08-16T05:03:41.797Z,97.77
2022-08-16T05:06:42.480Z,97.75
2022-08-16T05:09:19.335Z,98.40
2022-08-16T05:11:57.514Z,98.80
2022-08-16T05:14:46.617Z,99.19
2022-08-16T05:17:24.794Z,98.57
2022-08-16T05:19:58.660Z,99.85
2022-08-16T05:22:31.512Z,97.88
2022-08-16T05:25:09.393Z,97.44
2022-08-16T05:27:44.534Z,99.88
2022-08-16T05:30:34.708Z,100.00
2022-08-16T05:33:09.093Z,100.00
2022-08-16T05:35:54.867Z,100.00
2022-08-16T05:38:33.307Z,100.00
2022-08-16T05:41:14.052Z,100.00
2022-08-16T05:43:47.519Z,100.00
2022-08-16T05:46:30.257Z,100.00
2022-08-16T05:49:08.758Z,100.00
2022-08-16T05:51:45.830Z,100.00
2022-08-16T05:54:24.722Z,100.00
2022-08-16T05:57:00.017Z,100.00
2022-08-16T05:59:32.653Z,100.00
2022-08-16T06:02:06.347Z,100.00
2022-08-16T06:04:42.408Z,100.00
2022-08-16T06:07:25.022Z,100.00
2022-08-16T06:10:00.203Z,100.00
2022-08-16T06:12:32.884Z,100.00
2022-08-16T06:15:14.901Z,100.00
2022-08-16T06:17:51.703Z,100.00
2022-08-16T06:20:35.980Z,100.00
2022-08-16T06:23:17.077Z,100.00
2022-08-16T06:25:53.266Z,100.00
2022-08-16T06:28:36.476Z,96.18
2022-08-16T06:31:12.193Z,94.50
2022-08-16T06:33:45.670Z,93.47
2022-08-16T06:36:20.950Z,93.02
2022-08-16T06:38:56.439Z,90.28
2022-08-16T06:41:29.426Z,90.24
2022-08-16T06:44:20.999Z,89.74
2022-08-16T06:46:54.265Z,88.34
2022-08-16T06:49:26.764Z,88.01
2022-08-16T06:52:03.205Z,85.96
2022-08-16T06:54:36.359Z,85.23
2022-08-16T06:57:11.815Z,83.82
2022-08-16T06:59:58.180Z,83.39
2022-08-16T07:02:33.033Z,83.14
2022-08-16T07:05:10.623Z,82.51
2022-08-16T07:07:52.319Z,82.59
2022-08-16T07:10:27.563Z,82.73
2022-08-16T07:13:03.868Z,80.09
2022-08-16T07:15:37.230Z,80.71
2022-08-16T07:18:24.478Z,78.41
2022-08-16T07:21:01.747Z,76.96
2022-08-16T07:23:36.995Z,76.87
2022-08-16T07:26:24.857Z,77.86
2022-08-16T07:28:58.107Z,74.68
2022-08-16T07:31:38.120Z,71.98
2022-08-16T07:34:10.930Z,74.30
2022-08-16T07:36:45.616Z,74.86
2022-08-16T07:39:33.515Z,69.83
2022-08-16T07:42:06.907Z,70.19
2022-08-16T07:44:50.234Z,67.88
2022-08-16T07:47:24.676Z,70.04
2022-08-16T07:50:07.355Z,67.82
2022-08-16T07:52:41.356Z,66.54
2022-08-16T07:55:16.330Z,65.51
2022-08-16T07:57:58.123Z,65.19
2022-08-16T08:00:34.247Z,63.18
2022-08-16T08:03:06.821Z,61.69
2022-08-16T08:05:43.550Z,60.24
2022-08-16T08:08:50.453Z,60.77
2022-08-16T08:11:09.549Z,59.91
2022-08-16T08:13:43.060Z,61.04
2022-08-16T08:16:18.273Z,56.83
2022-08-16T08:18:56.059Z,56.55
2022-08-16T08:21:59.176Z,58.70
2022-08-16T08:24:31.661Z,57.76
2022-08-16T08:27:08.280Z,59.11
2022-08-16T08:29:42.598Z,56.85
2022-08-16T08:32:58.152Z,53.99
2022-08-16T08:35:08.859Z,53.71
2022-08-16T08:37:54.740Z,53.23
2022-08-16T08:40:29.748Z,55.43
2022-08-16T08:43:11.714Z,58.08
2022-08-16T08:45:48.856Z,58.13
2022-08-16T08:48:33.318Z,57.50
2022-08-16T08:51:09.857Z,57.13
2022-08-16T08:53:43.154Z,54.73
2022-08-16T08:56:22.408Z,55.47
2022-08-16T08:58:59.108Z,54.72
2022-08-16T09:01:36.836Z,53.08
2022-08-16T09:04:17.615Z,52.66
2022-08-16T09:06:50.285Z,55.27
2022-08-16T09:09:23.305Z,55.47
2022-08-16T09:12:04.025Z,54.07
2022-08-16T09:14:50.888Z,54.69
2022-08-16T09:17:45.470Z,53.51
2022-08-16T09:20:17.235Z,50.69
2022-08-16T09:22:52.953Z,50.82
2022-08-16T09:25:33.816Z,50.28
2022-08-16T09:28:08.796Z,48.47
2022-08-16T09:30:43.141Z,47.12
2022-08-16T09:33:18.304Z,46.36
2022-08-16T09:35:53.139Z,44.36
2022-08-16T09:38:32.196Z,43.54
2022-08-16T09:41:14.718Z,44.95
2022-08-16T09:43:59.534Z,39.78
2022-08-16T09:46:33.440Z,39.43
2022-08-16T09:49:20.941Z,38.23
2022-08-16T09:51:55.495Z,39.05
2022-08-16T09:54:32.421Z,38.48
2022-08-16T09:57:06.174Z,39.74
2022-08-16T09:59:44.692Z,38.25
2022-08-16T10:02:26.761Z,38.26
2022-08-16T10:05:00.737Z,39.61
2022-08-16T10:07:44.251Z,37.66
2022-08-16T10:10:30.453Z,37.67
2022-08-16T10:13:12.561Z,37.72
2022-08-16T10:15:55.123Z,36.64
2022-08-16T10:19:01.592Z,37.33
2022-08-16T10:21:23.645Z,37.75
2022-08-16T10:23:57.819Z,36.39
2022-08-16T10:27:11.322Z,35.97
2022-08-16T10:29:25.282Z,35.87
2022-08-16T10:32:21.045Z,36.35
2022-08-16T10:34:54.276Z,35.45
2022-08-16T10:37:32.213Z,34.27
2022-08-16T10:40:28.559Z,33.97
2022-08-16T10:43:01.079Z,32.48
2022-08-16T10:45:36.905Z,33.73
2022-08-16T10:48:27.333Z,33.73
2022-08-16T10:51:00.387Z,30.99
2022-08-16T10:53:34.240Z,33.20
2022-08-16T10:56:52.415Z,32.33
2022-08-16T11:07:52.134Z,29.78
2022-08-16T11:17:02.374Z,29.30
2022-08-16T11:19:13.693Z,28.29
2022-08-16T11:24:43.332Z,27.46
2022-08-16T11:27:23.371Z,27.17
2022-08-16T11:29:57.046Z,27.82
2022-08-16T11:32:32.314Z,29.58
2022-08-16T11:35:14.746Z,31.67
2022-08-16T11:38:47.393Z,34.09
2022-08-16T11:41:01.249Z,33.98
2022-08-16T11:43:38.016Z,35.99
2022-08-16T11:46:44.833Z,36.93
2022-08-16T11:49:13.425Z,37.38
2022-08-16T11:51:46.809Z,37.69
2022-08-16T11:54:20.429Z,38.69
2022-08-16T11:56:57.373Z,38.95
2022-08-16T11:59:30.604Z,39.30
2022-08-16T12:02:32.274Z,39.23
2022-08-16T12:04:59.506Z,38.25
2022-08-16T12:07:34.169Z,35.64
2022-08-16T12:10:11.096Z,33.81
2022-08-16T12:12:45.000Z,32.29
2022-08-16T12:15:20.034Z,28.23
2022-08-16T12:17:54.964Z,28.03
2022-08-16T12:20:32.257Z,28.90
2022-08-16T12:23:05.513Z,27.85
2022-08-16T12:25:38.519Z,28.64
2022-08-16T12:28:11.518Z,28.67
2022-08-16T12:30:45.754Z,29.41
2022-08-16T12:33:25.456Z,30.44
2022-08-16T12:35:58.643Z,31.47
2022-08-16T12:38:40.995Z,30.19
2022-08-16T12:41:24.459Z,28.65
2022-08-16T12:44:01.431Z,28.65
2022-08-16T12:46:34.238Z,27.67
2022-08-16T12:49:08.307Z,28.44
2022-08-16T12:51:58.926Z,29.42
2022-08-16T12:54:33.510Z,28.94
2022-08-16T12:57:13.977Z,26.87
2022-08-16T12:59:46.849Z,28.47
2022-08-16T13:02:22.920Z,26.60
2022-08-16T13:05:08.039Z,26.60
2022-08-16T13:07:45.363Z,26.55
2022-08-16T13:10:36.818Z,26.62
2022-08-16T13:13:10.842Z,26.41
2022-08-16T13:15:55.472Z,26.40
2022-08-16T13:18:35.549Z,25.68
2022-08-16T13:21:09.066Z,24.93
2022-08-16T13:23:43.964Z,25.22
2022-08-16T13:26:17.451Z,25.42
2022-08-16T13:28:50.692Z,26.98
2022-08-16T13:31:24.083Z,27.94
2022-08-16T13:33:58.912Z,26.00
2022-08-16T13:36:48.480Z,25.28
2022-08-16T13:39:22.033Z,24.43
2022-08-16T13:41:57.174Z,25.16
2022-08-16T13:44:56.368Z,26.16
2022-08-16T13:47:25.787Z,26.68
2022-08-16T13:50:04.976Z,26.85
2022-08-16T13:52:40.354Z,26.65
2022-08-16T13:55:17.746Z,28.40
2022-08-16T13:57:53.330Z,30.31
2022-08-16T14:00:43.283Z,30.18
2022-08-16T14:03:18.376Z,29.86
2022-08-16T14:05:52.665Z,31.35
2022-08-16T14:08:27.300Z,31.61
2022-08-16T14:10:59.979Z,30.64
2022-08-16T14:13:34.130Z,30.46
2022-08-16T14:16:08.193Z,30.88
2022-08-16T14:18:53.107Z,30.14
2022-08-16T14:21:25.657Z,30.08
2022-08-16T14:23:58.164Z,31.06
2022-08-16T14:26:30.624Z,31.15
2022-08-16T14:29:03.874Z,31.25
2022-08-16T14:31:39.706Z,31.81
2022-08-16T14:34:13.381Z,31.08
2022-08-16T14:36:52.078Z,30.67
2022-08-16T14:39:25.534Z,31.97
2022-08-16T14:42:10.724Z,30.37
2022-08-16T14:44:47.382Z,31.59
2022-08-16T14:47:20.478Z,30.85
2022-08-16T14:49:52.966Z,30.56
2022-08-16T14:52:52.041Z,30.81
2022-08-16T14:55:18.394Z,30.76
2022-08-16T14:57:54.438Z,30.95
2022-08-16T15:00:34.005Z,30.19
2022-08-16T15:03:10.608Z,29.23
2022-08-16T15:05:43.274Z,29.31
2022-08-16T15:08:17.128Z,28.50
2022-08-16T15:10:52.919Z,28.16
2022-08-16T15:13:25.777Z,30.26
2022-08-16T15:16:02.434Z,30.70
2022-08-16T15:18:36.279Z,31.14
2022-08-16T15:21:11.705Z,32.49
2022-08-16T15:23:44.818Z,32.14
2022-08-16T15:26:44.763Z,31.20
2022-08-16T15:29:10.218Z,30.90
2022-08-16T15:31:44.629Z,32.05
2022-08-16T15:34:21.838Z,32.46
2022-08-16T15:36:58.794Z,33.09
2022-08-16T15:39:39.350Z,34.50
2022-08-16T15:42:27.075Z,35.00
2022-08-16T15:45:00.857Z,36.35
2022-08-16T15:47:35.324Z,36.35
2022-08-16T15:50:09.492Z,37.38
2022-08-16T15:52:43.364Z,37.58
2022-08-16T15:55:29.866Z,38.35
2022-08-16T15:58:38.261Z,38.16
2022-08-16T16:01:01.779Z,38.50
2022-08-16T16:03:34.927Z,38.34
2022-08-16T16:06:08.529Z,38.04
2022-08-16T16:08:41.720Z,37.71
2022-08-16T16:11:15.421Z,37.71
2022-08-16T16:13:48.885Z,35.68
2022-08-16T16:16:24.653Z,35.06
2022-08-16T16:18:57.103Z,33.87
2022-08-16T16:21:29.671Z,32.87
2022-08-16T16:24:03.411Z,31.62
2022-08-16T16:26:55.884Z,31.89
2022-08-16T16:29:28.800Z,32.35
2022-08-16T16:32:14.239Z,32.26
2022-08-16T16:34:48.042Z,33.15
2022-08-16T16:37:22.627Z,33.77
2022-08-16T16:39:56.250Z,35.04
2022-08-16T16:42:30.377Z,35.52
2022-08-16T16:45:05.469Z,36.22
2022-08-16T16:47:42.939Z,36.90
2022-08-16T16:50:17.732Z,38.06
2022-08-16T16:52:56.190Z,38.93
2022-08-16T16:55:30.305Z,38.04
2022-08-16T16:58:35.189Z,38.28
2022-08-16T17:01:09.140Z,36.57
2022-08-16T17:03:42.195Z,36.33
2022-08-16T17:06:15.181Z,37.09
2022-08-16T17:08:47.780Z,36.06
2022-08-16T17:11:25.393Z,37.59
2022-08-16T17:14:02.872Z,36.35
2022-08-16T17:16:40.360Z,38.07
2022-08-16T17:19:21.944Z,38.88
2022-08-16T17:21:56.271Z,41.04
2022-08-16T17:24:39.347Z,41.81
2022-08-16T17:27:17.925Z,41.02
2022-08-16T17:29:51.399Z,41.74
2022-08-16T17:32:33.914Z,43.19
2022-08-16T17:35:25.277Z,43.16
2022-08-16T17:38:09.504Z,44.58
2022-08-16T17:40:55.538Z,42.57
2022-08-16T17:43:34.276Z,45.57
2022-08-16T17:46:50.242Z,43.86
2022-08-16T17:49:01.906Z,43.03
2022-08-16T17:51:34.444Z,43.89
2022-08-16T17:54:07.200Z,44.01
2022-08-16T17:56:52.713Z,44.05
2022-08-16T17:59:25.615Z,44.24
2022-08-16T18:01:58.435Z,45.97
2022-08-16T18:04:48.747Z,46.32
2022-08-16T18:07:23.193Z,47.66
2022-08-16T18:09:55.620Z,47.42
2022-08-16T18:12:51.009Z,47.30
2022-08-16T18:15:25.095Z,46.75
2022-08-16T18:17:57.625Z,47.57
2022-08-16T18:20:48.788Z,46.86
2022-08-16T18:23:27.988Z,48.60
2022-08-16T18:26:06.053Z,50.88
2022-08-16T18:28:39.244Z,50.85
2022-08-16T18:31:11.738Z,51.12
2022-08-16T18:33:44.244Z,51.16
2022-08-16T18:36:21.148Z,53.55
2022-08-16T18:38:54.285Z,50.76
2022-08-16T18:41:27.674Z,53.17
2022-08-16T18:44:25.546Z,50.28
2022-08-16T18:46:52.586Z,54.57
2022-08-16T18:49:25.177Z,52.73
2022-08-16T18:51:58.882Z,52.94
2022-08-16T18:54:33.081Z,51.61
2022-08-16T18:57:08.094Z,51.34
2022-08-16T18:59:42.058Z,49.76
2022-08-16T19:02:57.590Z,49.11
2022-08-16T19:05:37.048Z,49.75
2022-08-16T19:08:14.357Z,49.64
2022-08-16T19:10:49.062Z,49.80
2022-08-16T19:13:27.532Z,51.94
2022-08-16T19:16:01.702Z,58.63
2022-08-16T19:18:37.116Z,57.49
2022-08-16T19:21:15.374Z,57.73
2022-08-16T19:23:47.938Z,60.65
2022-08-16T19:26:24.739Z,62.12
2022-08-16T19:28:59.826Z,59.56
2022-08-16T19:31:35.793Z,58.35
2022-08-16T19:34:08.680Z,64.17
2022-08-16T19:36:41.104Z,66.79
2022-08-16T19:39:15.887Z,65.90
2022-08-16T19:41:54.047Z,65.06
2022-08-16T19:44:28.364Z,63.64
2022-08-16T19:47:00.845Z,65.16
2022-08-16T19:49:37.959Z,67.91
2022-08-16T19:52:10.787Z,69.69
2022-08-16T19:54:46.509Z,73.36
2022-08-16T19:57:20.367Z,73.81
2022-08-16T19:59:53.183Z,74.65
2022-08-16T20:02:36.430Z,75.84
2022-08-16T20:05:09.326Z,74.07
2022-08-16T20:07:42.345Z,73.14
2022-08-16T20:10:16.082Z,71.74
2022-08-16T20:12:58.243Z,73.09
2022-08-16T20:15:40.555Z,74.44
2022-08-16T20:18:17.226Z,73.92
2022-08-16T20:20:57.757Z,73.43
2022-08-16T20:23:30.268Z,74.05
2022-08-16T20:26:02.864Z,70.92
2022-08-16T20:28:53.018Z,68.52
2022-08-16T20:31:26.896Z,73.74
2022-08-16T20:33:59.373Z,79.87
2022-08-16T20:36:31.814Z,77.56
2022-08-16T20:39:04.960Z,80.35
2022-08-16T20:41:37.376Z,77.00
2022-08-16T20:44:11.428Z,74.54
2022-08-16T20:46:44.360Z,72.83
2022-08-16T20:49:16.767Z,71.63
2022-08-16T20:51:54.704Z,70.81
2022-08-16T20:54:29.307Z,70.79
2022-08-16T20:57:02.394Z,73.89
2022-08-16T20:59:36.482Z,73.57
2022-08-16T21:02:15.396Z,75.95
2022-08-16T21:04:48.046Z,82.77
2022-08-16T21:07:22.734Z,82.47
2022-08-16T21:09:55.252Z,82.07
2022-08-16T21:12:34.573Z,80.45
2022-08-16T21:15:10.557Z,81.03
2022-08-16T21:17:45.482Z,83.41
2022-08-16T21:20:18.968Z,86.50
2022-08-16T21:23:01.843Z,86.75
2022-08-16T21:25:36.247Z,82.30
2022-08-16T21:28:41.838Z,78.80
2022-08-16T21:31:05.018Z,76.15
2022-08-16T21:33:37.506Z,73.58
2022-08-16T21:36:11.042Z,68.40
2022-08-16T21:38:43.506Z,71.07
2022-08-16T21:41:16.103Z,82.54
2022-08-16T21:43:48.505Z,82.11
2022-08-16T21:46:20.974Z,71.70
2022-08-16T21:48:53.431Z,77.75
2022-08-16T21:51:26.422Z,76.10
2022-08-16T21:53:59.324Z,70.52
2022-08-16T21:56:31.985Z,70.94
2022-08-16T21:59:10.747Z,69.65
2022-08-16T22:01:43.774Z,71.76
2022-08-16T22:04:37.113Z,74.85
2022-08-16T22:07:09.860Z,77.28
2022-08-16T22:09:44.796Z,84.58
2022-08-16T22:12:24.509Z,85.28
2022-08-16T22:14:57.023Z,82.19
2022-08-16T22:17:29.454Z,80.67
2022-08-16T22:20:02.041Z,81.27
2022-08-16T22:22:36.586Z,85.91
2022-08-16T22:25:09.630Z,85.67
2022-08-16T22:27:43.401Z,91.04
2022-08-16T22:30:16.240Z,93.30
2022-08-16T22:32:49.942Z,91.14
2022-08-16T22:35:22.569Z,89.17
2022-08-16T22:38:45.459Z,91.44
2022-08-16T22:40:48.408Z,90.13
2022-08-16T22:43:21.590Z,87.91
2022-08-16T22:45:54.327Z,86.34
2022-08-16T22:48:26.845Z,85.96
2022-08-16T22:50:59.347Z,85.93
2022-08-16T22:53:32.524Z,87.81
2022-08-16T22:56:04.995Z,87.67
2022-08-16T22:58:37.515Z,90.83
2022-08-16T23:01:12.064Z,91.32
2022-08-16T23:03:45.157Z,88.74
2022-08-16T23:06:18.475Z,90.14
2022-08-16T23:08:51.627Z,86.29
2022-08-16T23:11:25.743Z,84.62
2022-08-16T23:13:58.234Z,78.62
2022-08-16T23:16:34.477Z,77.76
2022-08-16T23:19:11.577Z,75.70
2022-08-16T23:21:47.017Z,80.62
2022-08-16T23:24:20.815Z,81.70
2022-08-16T23:26:53.230Z,80.63
2022-08-16T23:29:26.721Z,83.95
2022-08-16T23:32:11.372Z,80.00
2022-08-16T23:34:43.817Z,80.51
2022-08-16T23:37:16.221Z,81.64
2022-08-16T23:39:49.771Z,80.55
2022-08-16T23:42:52.945Z,83.98
2022-08-16T23:45:33.635Z,84.79
2022-08-16T23:48:06.396Z,86.31
2022-08-16T23:50:43.045Z,86.55
2022-08-16T23:53:21.689Z,87.57
2022-08-16T23:56:00.254Z,87.09
2022-08-16T23:58:36.130Z,87.23
